Flight Track Log - Related Links

Times and Time Zones

All times are in EDT time to prevent confusion due to time zone crossing. See the LYM1725 flight status page for this flight to view local times or setup timezone preferences in your user account.

Time Position Orientation Groundspeed Altitude Reporting Facility
EDT Latitude Longitude Course Direction KTS MPH feet Rate Location/Type
Tue 08:27:10 AM 39.9167 -104.7000 349° North 153 176 7,300  Level Denver TRACON
Tue 08:28:10 AM 39.9667 -104.7167 346° North 184 212 8,700 1,450 Climbing Denver TRACON
Tue 08:29:10 AM 40.0167 -104.7500 333° Northwest 192 221 10,200 1,500 Climbing Denver TRACON
Tue 08:30:10 AM 40.0667 -104.7667 346° North 188 216 11,700 1,415 Climbing Denver TRACON
Tue 08:31:13 AM 40.1167 -104.7797 349° North 194 223 13,100 1,355 Climbing Denver Center
Tue 08:32:00 AM 40.1475 -104.8035 349° North  Level FlightAware Approximate
Tue 08:32:14 AM 40.1722 -104.7922 350° North 201 231 14,500  Level Denver Center
Tue 08:33:15 AM 40.2272 -104.8019 352° North 199 229 15,800 1,377 Climbing Denver Center
Tue 08:34:16 AM 40.2817 -104.8097 354° North 195 224 17,300 1,488 Climbing Denver Center
Tue 08:35:16 AM 40.3375 -104.8164 355° North 185 213 18,800 1,289 Climbing Denver Center
Tue 08:36:17 AM 40.3900 -104.8219 355° North 189 217 19,900 639 Climbing Denver Center
Tue 08:37:18 AM 40.4478 -104.8308 353° North 215 247 20,100 98 Climbing Denver Center
Tue 08:38:19 AM 40.4986 -104.8736 327° Northwest 217 250 20,100 -49 Level Denver Center
Tue 08:39:20 AM 40.5472 -104.9214 323° Northwest 217 250 20,000 -49 Descending Denver Center
Tue 08:40:21 AM 40.5967 -104.9717 322° Northwest 224 258 20,000 49 Level Denver Center
Tue 08:41:22 AM 40.6547 -105.0281 324° Northwest 240 276 20,100  Climbing Denver Center
Tue 08:42:23 AM 40.7100 -105.0842 322° Northwest 252 290 20,000 -49 Descending Denver Center
Tue 08:43:24 AM 40.7619 -105.1283 327° Northwest 241 277 20,000  Level Denver Center
Tue 08:44:24 AM 40.8194 -105.1817 325° Northwest 248 285 20,000  Level Denver Center
Tue 08:45:25 AM 40.8767 -105.2333 326° Northwest 246 283 20,000  Level Denver Center
Tue 08:46:26 AM 40.9314 -105.2872 323° Northwest 244 281 20,000  Level Denver Center
Tue 08:47:27 AM 40.9867 -105.3406 324° Northwest 243 280 20,000 49 Level Denver Center
Tue 08:48:28 AM 41.0483 -105.4022 323° Northwest 245 282 20,100 49 Climbing Denver Center
Tue 08:49:29 AM 41.0967 -105.4519 322° Northwest 234 269 20,100 -49 Level Denver Center
Tue 08:50:30 AM 41.1436 -105.5072 318° Northwest 235 270 20,000 -49 Descending Denver Center
Tue 08:51:31 AM 41.1978 -105.5731 318° Northwest 236 272 20,000  Level Denver Center
Tue 08:52:32 AM 41.2447 -105.6222 322° Northwest 227 261 20,000  Level Denver Center
Tue 08:53:45 AM 41.3069 -105.6903 321° Northwest 226 260 20,000  Level Denver Center
Tue 08:54:46 AM 41.3447 -105.7519 309° West 225 259 20,000  Level Denver Center
Tue 08:55:47 AM 41.3803 -105.8156 307° West 224 258 20,000 -49 Level Denver Center
Tue 08:56:48 AM 41.4208 -105.8919 305° West 227 261 19,900  Descending Denver Center
Tue 08:57:49 AM 41.4586 -105.9558 308° West 229 264 20,000 98 Climbing Denver Center
Tue 08:58:50 AM 41.4975 -106.0183 310° West 228 262 20,100  Climbing Denver Center
Tue 08:59:50 AM 41.5419 -106.0972 307° West 235 270 20,000 -50 Descending Denver Center
Tue 09:00:51 AM 41.5806 -106.1639 308° West 236 272 20,000 49 Level Denver Center
Tue 09:01:52 AM 41.6208 -106.2422 305° West 229 264 20,100  Climbing Denver Center
Tue 09:02:53 AM 41.6603 -106.3039 311° West 229 264 20,000  Descending Denver Center
Tue 09:03:54 AM 41.6986 -106.3683 309° West 230 265 20,100  Climbing Denver Center
Tue 09:04:55 AM 41.7458 -106.4436 310° West 234 269 20,000 -49 Descending Denver Center
Tue 09:05:56 AM 41.7886 -106.5014 315° West 231 266 20,000  Level Denver Center
Tue 09:06:57 AM 41.8369 -106.5608 318° Northwest 231 266 20,000  Level Denver Center
Tue 09:07:58 AM 41.8825 -106.6161 318° Northwest 230 265 20,000 49 Level Denver Center
Tue 09:08:59 AM 41.9356 -106.6822 317° Northwest 234 269 20,100  Climbing Denver Center
Tue 09:09:59 AM 41.9817 -106.7394 317° Northwest 236 272 20,000 -50 Descending Denver Center
Tue 09:11:00 AM 42.0256 -106.7975 316° Northwest 232 267 20,000  Level Denver Center
Tue 09:12:01 AM 42.0806 -106.8647 318° Northwest 237 273 20,000  Level Denver Center
Tue 09:13:14 AM 42.1372 -106.9333 318° Northwest 245 282 20,000  Level Denver Center
Tue 09:14:15 AM 42.1861 -106.9997 315° West 237 273 20,000  Level Denver Center
Tue 09:15:16 AM 42.2303 -107.0683 311° West 240 276 20,000 -49 Level Denver Center
Tue 09:16:17 AM 42.2722 -107.1317 312° West 238 274 19,900 -49 Descending Denver Center
Tue 09:17:18 AM 42.3206 -107.2061 311° West 235 270 19,900 -148 Level Denver Center
Tue 09:18:19 AM 42.3567 -107.2736 306° West 233 268 19,600 -492 Descending Denver Center
Tue 09:19:20 AM 42.3992 -107.3400 311° West 242 278 18,900 -694 Descending Denver Center
Tue 09:20:20 AM 42.4531 -107.4181 313° West 254 292 18,200 -706 Descending Denver Center
Tue 09:20:45 AM 42.4678 -107.4414 311° West 256 295 17,900 -837 Descending Salt Lake Center
Tue 09:21:46 AM 42.5231 -107.5208 313° West 259 298 17,000 -787 Descending Salt Lake Center
Tue 09:22:47 AM 42.5725 -107.5908 314° West 265 305 16,300 -590 Descending Salt Lake Center
Tue 09:23:48 AM 42.6222 -107.6594 315° West 267 307 15,800 -689 Descending Salt Lake Center
Tue 09:24:49 AM 42.6889 -107.7297 322° Northwest 272 313 14,900 -942 Descending Salt Lake Center
Tue 09:25:49 AM 42.7564 -107.7728 335° Northwest 280 322 13,900 -843 Descending Salt Lake Center
Tue 09:26:50 AM 42.8169 -107.8308 325° Northwest 278 320 13,200 -787 Descending Salt Lake Center
Tue 09:27:51 AM 42.8600 -107.9308 300° West 275 316 12,300 -836 Descending Salt Lake Center
Tue 09:28:52 AM 42.8961 -108.0269 297° West 277 319 11,500 -738 Descending Salt Lake Center
Tue 09:29:53 AM 42.9386 -108.1200 302° West 277 319 10,800 -541 Descending Salt Lake Center
Tue 09:30:54 AM 42.9739 -108.2039 300° West 274 315 10,400 -927 Descending Salt Lake Center
Tue 09:31:56 AM 43.0031 -108.2769 299° West 246 283 8,900 -885 Descending Salt Lake Center
Tue 09:32:56 AM 43.0211 -108.3336 294° West 234 269 8,600 -300 Descending Salt Lake Center

Login

Don't have an account? Register now (free) for customized features, flight alerts, and more!